Time;durP1;ratioP1;P1;durP2;ratioP2;P2;SDS_P1;SDS_P2;PMS_P1;PMS_P2;Temp;Humidity;BMP_temperature;BMP_pressure;BME280_temperature;BME280_humidity;BME280_pressure;Samples;Min_cycle;Max_cycle;Signal;HPM_P1;HPM_P2
2022/07/17 00:00:03;;;;;;;0.00;0.00;;;;;;;10.96;91.19;101443.06;5070641;28;20171;-73
2022/07/17 00:02:28;;;;;;;0.00;0.00;;;;;;;11.09;91.68;101444.31;5070595;28;20178;-72
2022/07/17 00:04:54;;;;;;;0.00;0.00;;;;;;;11.07;91.12;101444.59;5072469;28;20223;-74
2022/07/17 00:07:19;;;;;;;0.00;0.00;;;;;;;11.05;90.38;101446.00;5077640;28;20175;-73
2022/07/17 00:09:44;;;;;;;4.93;0.73;;;;;;;10.92;90.43;101439.31;5077037;28;20174;-72
2022/07/17 00:12:10;;;;;;;0.40;0.40;;;;;;;10.79;91.32;101439.97;5077273;28;20225;-76
2022/07/17 00:14:35;;;;;;;0.00;0.00;;;;;;;10.77;92.34;101442.19;5077497;28;20585;-76
2022/07/17 00:17:00;;;;;;;0.20;0.20;;;;;;;10.85;92.79;101436.06;5076471;28;20614;-75
2022/07/17 00:19:26;;;;;;;0.00;0.00;;;;;;;10.90;92.72;101433.31;5075663;28;20201;-75
2022/07/17 00:21:51;;;;;;;0.00;0.00;;;;;;;10.92;92.20;101431.09;5077278;28;20253;-76
2022/07/17 00:24:19;;;;;;;0.00;0.00;;;;;;;10.94;92.30;101423.41;5077770;28;20178;-76
2022/07/17 00:26:49;;;;;;;0.00;0.00;;;;;;;11.06;92.01;101439.44;5076894;28;20170;-73
2022/07/17 00:29:15;;;;;;;0.00;0.00;;;;;;;11.07;91.62;101438.31;5075598;28;20178;-74
2022/07/17 00:31:41;;;;;;;0.00;0.00;;;;;;;10.99;91.26;101437.88;5077486;28;20217;-73
2022/07/17 00:34:06;;;;;;;0.00;0.00;;;;;;;10.91;91.60;101434.94;5077253;28;20208;-73
2022/07/17 00:36:31;;;;;;;0.00;0.00;;;;;;;10.84;92.42;101437.19;5077022;28;20196;-73
2022/07/17 00:38:57;;;;;;;0.00;0.00;;;;;;;10.76;92.90;101435.09;5076915;28;20181;-73
2022/07/17 00:41:22;;;;;;;0.00;0.00;;;;;;;10.77;93.45;101431.25;5077194;28;20183;-73
2022/07/17 00:43:48;;;;;;;0.10;0.10;;;;;;;10.77;93.74;101436.72;5077117;28;20615;-72
2022/07/17 00:46:13;;;;;;;0.63;0.63;;;;;;;10.70;93.90;101429.69;5077038;28;20174;-76
2022/07/17 00:48:39;;;;;;;0.00;0.00;;;;;;;10.63;94.46;101436.56;5076458;28;20228;-75
2022/07/17 00:51:04;;;;;;;0.00;0.00;;;;;;;10.56;94.54;101439.66;5076705;28;20506;-73
2022/07/17 00:53:35;;;;;;;0.00;0.00;;;;;;;10.47;95.09;101440.53;5076964;28;20174;-73
2022/07/17 00:56:05;;;;;;;0.00;0.00;;;;;;;10.36;96.12;101432.41;5076866;28;20703;-74
2022/07/17 00:58:34;;;;;;;0.17;0.17;;;;;;;10.31;96.69;101437.94;5076306;28;20170;-73
2022/07/17 01:00:59;;;;;;;0.00;0.00;;;;;;;10.23;97.41;101433.06;5076802;28;20679;-73
2022/07/17 01:03:25;;;;;;;0.00;0.00;;;;;;;10.19;97.86;101433.91;5076716;28;20170;-73
2022/07/17 01:05:51;;;;;;;0.23;0.23;;;;;;;10.16;99.07;101434.47;5077030;28;20219;-72
2022/07/17 01:08:17;;;;;;;0.00;0.00;;;;;;;10.10;99.40;101418.09;5076409;28;20186;-74
2022/07/17 01:10:43;;;;;;;0.10;0.10;;;;;;;10.08;99.91;101424.97;5075709;28;20253;-73
2022/07/17 01:13:08;;;;;;;0.00;0.00;;;;;;;10.11;100.00;101430.66;5076521;28;20232;-75
2022/07/17 01:15:39;;;;;;;0.00;0.00;;;;;;;10.06;100.00;101430.69;5075802;28;20182;-76
2022/07/17 01:18:07;;;;;;;0.00;0.00;;;;;;;10.04;100.00;101434.81;5072107;28;20178;-76
2022/07/17 01:20:34;;;;;;;0.00;0.00;;;;;;;9.99;100.00;101449.34;5073393;28;20701;-73
2022/07/17 01:22:59;;;;;;;0.00;0.00;;;;;;;9.98;100.00;101434.06;5072195;28;20538;-74
2022/07/17 01:25:25;;;;;;;0.00;0.00;;;;;;;9.97;100.00;101431.56;5072039;28;20182;-76
2022/07/17 01:27:51;;;;;;;0.00;0.00;;;;;;;9.97;100.00;101442.50;5073020;28;20179;-73
2022/07/17 01:30:16;;;;;;;0.20;0.20;;;;;;;9.92;100.00;101437.91;5072870;28;20209;-75
2022/07/17 01:32:42;;;;;;;0.00;0.00;;;;;;;9.94;100.00;101443.88;5072327;28;20194;-76
2022/07/17 01:35:10;;;;;;;0.00;0.00;;;;;;;9.87;100.00;101432.47;5074003;28;20233;-73
2022/07/17 01:37:38;;;;;;;0.00;0.00;;;;;;;9.86;100.00;101436.31;5074464;28;20174;-73
2022/07/17 01:40:04;;;;;;;0.00;0.00;;;;;;;9.88;100.00;101434.09;5075303;28;20233;-75
2022/07/17 01:42:29;;;;;;;0.00;0.00;;;;;;;9.89;100.00;101437.66;5076500;28;20213;-76
2022/07/17 01:44:55;;;;;;;0.00;0.00;;;;;;;10.05;100.00;101445.47;5079766;28;20167;-76
2022/07/17 01:47:21;;;;;;;0.27;0.27;;;;;;;10.05;100.00;101445.47;5076561;28;20175;-77
2022/07/17 01:49:51;;;;;;;0.40;0.40;;;;;;;10.05;100.00;101445.47;5072920;28;20235;-75
2022/07/17 01:52:17;;;;;;;4.43;1.70;;;;;;;10.02;100.00;101445.22;5073311;28;20201;-73
2022/07/17 01:54:43;;;;;;;8.20;1.13;;;;;;;10.01;100.00;101444.41;5072931;28;20556;-76
2022/07/17 01:57:09;;;;;;;0.07;0.07;;;;;;;10.05;100.00;101447.38;5073013;28;20167;-76
2022/07/17 01:59:35;;;;;;;6.23;2.27;;;;;;;10.15;100.00;101444.59;5071661;28;20699;-76
2022/07/17 02:02:00;;;;;;;0.00;0.00;;;;;;;10.06;100.00;101444.34;5073192;28;20265;-77
2022/07/17 02:04:26;;;;;;;0.13;0.13;;;;;;;9.98;100.00;101444.13;5071514;28;20261;-75
2022/07/17 02:06:54;;;;;;;0.40;0.40;;;;;;;9.83;100.00;101445.03;5072552;28;20175;-77
2022/07/17 02:09:20;;;;;;;0.00;0.00;;;;;;;9.77;100.00;101446.16;5072458;28;20265;-75
2022/07/17 02:11:46;;;;;;;0.33;0.33;;;;;;;9.78;100.00;101448.63;5074204;28;20297;-74
2022/07/17 02:14:11;;;;;;;0.33;0.33;;;;;;;9.75;100.00;101448.38;5073404;28;20266;-76
2022/07/17 02:16:36;;;;;;;0.00;0.00;;;;;;;9.82;100.00;101455.13;5070523;28;20273;-77
2022/07/17 02:19:02;;;;;;;0.00;0.00;;;;;;;9.78;100.00;101456.81;5072870;28;20257;-77
2022/07/17 02:21:27;;;;;;;0.00;0.00;;;;;;;9.82;100.00;101452.41;5072677;28;20181;-76
2022/07/17 02:23:52;;;;;;;0.00;0.00;;;;;;;9.82;100.00;101454.31;5072744;28;20258;-76
2022/07/17 02:26:18;;;;;;;1.90;1.80;;;;;;;9.86;100.00;101455.41;5071024;28;20182;-75
2022/07/17 02:28:43;;;;;;;0.00;0.00;;;;;;;9.85;100.00;101453.78;5071786;28;20167;-73
2022/07/17 02:31:09;;;;;;;0.93;0.87;;;;;;;9.93;100.00;101453.16;5072349;28;20201;-73
2022/07/17 02:33:34;;;;;;;0.00;0.00;;;;;;;10.05;100.00;101459.09;5072398;28;20190;-74
2022/07/17 02:36:01;;;;;;;0.00;0.00;;;;;;;10.11;100.00;101459.88;5072280;28;20196;-73
2022/07/17 02:38:26;;;;;;;0.00;0.00;;;;;;;10.26;100.00;101456.25;5072005;28;20393;-74
2022/07/17 02:40:52;;;;;;;0.00;0.00;;;;;;;10.20;100.00;101451.91;5072079;28;20175;-74
2022/07/17 02:43:17;;;;;;;0.00;0.00;;;;;;;10.24;99.49;101458.47;5071948;28;20174;-74
2022/07/17 02:45:43;;;;;;;0.00;0.00;;;;;;;10.41;99.05;101459.72;5071973;28;20181;-74
2022/07/17 02:48:08;;;;;;;0.00;0.00;;;;;;;10.50;97.41;101465.38;5071838;28;20170;-74
2022/07/17 02:50:33;;;;;;;0.00;0.00;;;;;;;10.49;95.81;101462.94;5071895;28;20185;-74
2022/07/17 02:52:59;;;;;;;0.00;0.00;;;;;;;10.58;95.51;101464.78;5070319;28;20198;-73
2022/07/17 02:55:25;;;;;;;0.00;0.00;;;;;;;10.63;95.16;101470.19;5071638;28;20205;-72
2022/07/17 02:57:50;;;;;;;0.00;0.00;;;;;;;10.59;93.99;101471.03;5071714;28;20166;-73
2022/07/17 03:00:17;;;;;;;0.00;0.00;;;;;;;10.55;93.31;101473.50;5071446;28;20610;-74
2022/07/17 03:02:45;;;;;;;0.00;0.00;;;;;;;10.59;92.94;101477.31;5071600;28;20173;-74
2022/07/17 03:05:13;;;;;;;0.00;0.00;;;;;;;10.35;93.06;101470.94;5071728;28;20217;-76
2022/07/17 03:07:38;;;;;;;0.00;0.00;;;;;;;10.40;93.82;101479.91;5071414;28;20410;-75
2022/07/17 03:10:04;;;;;;;0.00;0.00;;;;;;;10.41;93.51;101476.13;5071321;28;20178;-75
2022/07/17 03:12:30;;;;;;;0.00;0.00;;;;;;;10.51;93.27;101480.66;5071442;28;20305;-75
2022/07/17 03:14:56;;;;;;;0.00;0.00;;;;;;;10.45;92.79;101486.47;5071596;28;20258;-74
2022/07/17 03:17:21;;;;;;;0.00;0.00;;;;;;;10.27;92.64;101494.25;5070818;28;20175;-75
2022/07/17 03:19:46;;;;;;;0.00;0.00;;;;;;;10.20;93.11;101496.44;5071119;28;20190;-75
2022/07/17 03:22:12;;;;;;;0.00;0.00;;;;;;;10.44;92.29;101499.31;5071592;28;20177;-75
2022/07/17 03:24:37;;;;;;;0.00;0.00;;;;;;;10.54;91.28;101501.13;5071526;28;20515;-74
2022/07/17 03:27:02;;;;;;;0.00;0.00;;;;;;;10.45;90.87;101500.13;5072108;28;20780;-75
2022/07/17 03:29:28;;;;;;;0.00;0.00;;;;;;;10.38;91.32;101506.72;5071466;28;20232;-75
2022/07/17 03:31:53;;;;;;;0.00;0.00;;;;;;;10.52;91.46;101504.16;5070971;28;20629;-75
2022/07/17 03:34:19;;;;;;;0.00;0.00;;;;;;;10.56;90.84;101507.97;5071020;28;20181;-75
2022/07/17 03:36:44;;;;;;;0.00;0.00;;;;;;;10.58;90.45;101510.41;5071004;28;20205;-75
2022/07/17 03:39:10;;;;;;;0.00;0.00;;;;;;;10.55;90.44;101521.88;5070659;28;20324;-75
2022/07/17 03:41:35;;;;;;;0.00;0.00;;;;;;;10.34;90.87;101522.03;5070818;28;20677;-74
2022/07/17 03:44:01;;;;;;;0.00;0.00;;;;;;;10.32;91.75;101521.50;5070997;28;20259;-75
2022/07/17 03:46:27;;;;;;;0.00;0.00;;;;;;;10.13;92.08;101525.97;5071087;28;20658;-75
2022/07/17 03:48:52;;;;;;;0.00;0.00;;;;;;;10.34;91.97;101518.50;5070542;28;20216;-75
2022/07/17 03:51:17;;;;;;;0.00;0.00;;;;;;;10.43;91.34;101530.47;5070726;28;20208;-75
2022/07/17 03:53:43;;;;;;;0.00;0.00;;;;;;;10.60;90.58;101519.94;5070936;28;20178;-74
2022/07/17 03:56:08;;;;;;;0.00;0.00;;;;;;;10.65;89.62;101535.47;5071286;28;20181;-73
2022/07/17 03:58:33;;;;;;;0.00;0.00;;;;;;;10.67;89.47;101536.00;5070420;28;20170;-75
2022/07/17 04:01:00;;;;;;;0.47;0.47;;;;;;;10.67;89.00;101539.56;5070935;28;20198;-74
2022/07/17 04:03:25;;;;;;;0.00;0.00;;;;;;;10.62;88.86;101536.88;5071020;28;20262;-75
2022/07/17 04:05:51;;;;;;;0.17;0.17;;;;;;;10.56;89.57;101537.19;5069509;28;20312;-75
2022/07/17 04:08:16;;;;;;;0.00;0.00;;;;;;;10.59;90.25;101537.44;5070528;28;20198;-75
2022/07/17 04:10:42;;;;;;;0.00;0.00;;;;;;;10.70;92.36;101538.16;5070888;28;20211;-75
2022/07/17 04:13:07;;;;;;;0.00;0.00;;;;;;;10.63;93.38;101543.16;5070550;28;20206;-75
2022/07/17 04:18:17;;;;;;;0.00;0.00;;;;;;;10.14;94.47;101541.25;5071014;28;20288;-75
2022/07/17 04:20:42;;;;;;;0.00;0.00;;;;;;;10.18;95.57;101555.16;5071039;28;20250;-76
2022/07/17 04:23:08;;;;;;;0.00;0.00;;;;;;;10.20;95.22;101555.69;5070340;28;20182;-73
2022/07/17 04:25:33;;;;;;;0.00;0.00;;;;;;;10.39;95.78;101548.50;5070624;28;20174;-74
2022/07/17 04:27:59;;;;;;;0.00;0.00;;;;;;;10.65;95.48;101547.22;5070500;28;20195;-76
2022/07/17 04:30:24;;;;;;;0.00;0.00;;;;;;;10.90;94.84;101551.69;5070754;28;20589;-75
2022/07/17 04:32:50;;;;;;;0.00;0.00;;;;;;;11.20;94.26;101549.78;5069155;28;20207;-75
2022/07/17 04:35:15;;;;;;;0.30;0.30;;;;;;;11.45;92.50;101537.78;5070597;28;20186;-76
2022/07/17 04:37:40;;;;;;;0.93;0.77;;;;;;;11.57;91.20;101525.31;5070343;28;20170;-75
2022/07/17 04:40:06;;;;;;;0.10;0.10;;;;;;;11.68;90.62;101519.69;5071412;28;20182;-76
2022/07/17 04:42:32;;;;;;;0.00;0.00;;;;;;;11.75;90.68;101514.72;5072932;28;20170;-76
2022/07/17 04:44:57;;;;;;;0.10;0.10;;;;;;;11.81;90.78;101517.09;5071145;28;20178;-76
2022/07/17 04:47:22;;;;;;;1.10;0.60;;;;;;;11.87;90.17;101507.72;5070370;28;20670;-75
2022/07/17 04:49:48;;;;;;;0.10;0.10;;;;;;;11.94;89.45;101510.09;5070043;28;20194;-74
2022/07/17 04:52:13;;;;;;;0.00;0.00;;;;;;;12.02;89.39;101509.44;5071579;28;20212;-74
2022/07/17 04:54:38;;;;;;;0.00;0.00;;;;;;;12.11;88.58;101515.06;5074487;28;20183;-75
2022/07/17 04:57:04;;;;;;;3.73;2.10;;;;;;;12.20;88.00;101533.28;5073854;28;20736;-75
2022/07/17 04:59:29;;;;;;;0.00;0.00;;;;;;;12.27;86.54;101543.06;5073618;28;20171;-75
2022/07/17 05:01:54;;;;;;;24.03;1.13;;;;;;;12.33;85.70;101553.66;5073640;28;20189;-75
2022/07/17 05:04:20;;;;;;;0.97;0.50;;;;;;;12.41;84.70;101558.47;5073731;28;20174;-75
2022/07/17 05:06:46;;;;;;;0.00;0.00;;;;;;;12.48;84.58;101569.09;5073711;28;20701;-74
2022/07/17 05:09:11;;;;;;;0.30;0.30;;;;;;;12.54;84.22;101580.78;5073490;28;20171;-73
2022/07/17 05:11:36;;;;;;;0.00;0.00;;;;;;;12.51;83.53;101599.44;5073635;28;20207;-74
2022/07/17 05:14:02;;;;;;;0.00;0.00;;;;;;;12.46;83.80;101594.06;5072282;28;20297;-75
2022/07/17 05:16:28;;;;;;;6.63;0.40;;;;;;;12.37;84.86;101587.59;5073136;28;20175;-74
2022/07/17 05:18:53;;;;;;;2.30;0.57;;;;;;;12.33;84.64;101589.28;5073180;28;20166;-74
2022/07/17 05:21:18;;;;;;;0.00;0.00;;;;;;;12.25;85.56;101581.72;5073476;28;20213;-75
2022/07/17 05:23:44;;;;;;;0.03;0.03;;;;;;;12.21;85.95;101577.94;5073274;28;20175;-74
2022/07/17 05:26:09;;;;;;;0.00;0.00;;;;;;;12.14;86.03;101564.59;5073252;28;20254;-75
2022/07/17 05:28:34;;;;;;;0.00;0.00;;;;;;;12.21;86.84;101572.47;5073130;28;20186;-75
2022/07/17 05:31:00;;;;;;;0.20;0.20;;;;;;;12.20;86.03;101574.41;5073121;28;20206;-74
2022/07/17 05:33:25;;;;;;;0.00;0.00;;;;;;;12.19;86.26;101570.03;5073094;28;20174;-75
2022/07/17 05:35:50;;;;;;;0.57;0.37;;;;;;;12.20;85.75;101562.63;5072979;28;20688;-74
2022/07/17 05:38:16;;;;;;;0.20;0.20;;;;;;;12.17;85.94;101558.56;5072181;28;20186;-75
2022/07/17 05:40:42;;;;;;;0.57;0.57;;;;;;;12.15;86.15;101558.03;5072814;28;20174;-74
2022/07/17 05:43:07;;;;;;;0.63;0.30;;;;;;;12.20;86.34;101554.41;5072661;28;20681;-75
2022/07/17 05:45:33;;;;;;;0.00;0.00;;;;;;;12.25;85.78;101556.25;5072953;28;20182;-75
2022/07/17 05:48:00;;;;;;;0.30;0.30;;;;;;;12.33;85.51;101559.16;5070129;28;20182;-75
2022/07/17 05:50:25;;;;;;;0.10;0.10;;;;;;;12.42;85.46;101573.81;5070916;28;20188;-75
2022/07/17 05:52:52;;;;;;;3.53;0.73;;;;;;;12.49;84.72;101573.44;5071845;28;20563;-75
2022/07/17 05:55:18;;;;;;;0.00;0.00;;;;;;;12.56;84.74;101562.09;5072451;28;20178;-74
2022/07/17 05:57:43;;;;;;;1.90;0.50;;;;;;;12.62;84.15;101569.97;5070735;28;20244;-74
2022/07/17 06:00:09;;;;;;;0.67;0.67;;;;;;;12.70;83.62;101568.47;5071977;28;20254;-73
2022/07/17 06:02:35;;;;;;;0.00;0.00;;;;;;;12.79;84.09;101566.69;5071875;28;20182;-74
2022/07/17 06:05:01;;;;;;;0.93;0.43;;;;;;;12.88;83.54;101566.84;5072280;28;20180;-76
2022/07/17 06:07:26;;;;;;;0.00;0.00;;;;;;;12.96;83.19;101563.38;5071832;28;20641;-76
2022/07/17 06:09:51;;;;;;;0.00;0.00;;;;;;;13.05;82.84;101569.84;5071822;28;20183;-75
2022/07/17 06:12:17;;;;;;;0.10;0.10;;;;;;;13.14;82.65;101559.78;5072491;28;20708;-75
2022/07/17 06:14:43;;;;;;;0.00;0.00;;;;;;;13.15;81.92;101552.34;5072346;28;20254;-75
2022/07/17 06:17:08;;;;;;;2.70;0.93;;;;;;;13.20;81.59;101566.03;5070859;28;20249;-73
2022/07/17 06:19:34;;;;;;;0.00;0.00;;;;;;;13.22;80.58;101580.28;5071844;28;20309;-74
2022/07/17 06:21:59;;;;;;;1.40;1.30;;;;;;;13.27;81.13;101577.44;5070466;28;20280;-73
2022/07/17 06:24:24;;;;;;;0.10;0.10;;;;;;;13.26;80.83;101571.13;5071798;28;20177;-76
2022/07/17 06:26:50;;;;;;;1.53;1.43;;;;;;;13.34;81.54;101583.34;5071669;28;20175;-74
2022/07/17 06:29:16;;;;;;;0.20;0.20;;;;;;;13.37;81.07;101588.22;5071117;28;20170;-74
2022/07/17 06:31:42;;;;;;;0.00;0.00;;;;;;;13.45;81.60;101593.00;5072153;28;20205;-74
2022/07/17 06:34:07;;;;;;;0.00;0.00;;;;;;;13.47;81.14;101596.28;5071664;28;20576;-73
2022/07/17 06:36:32;;;;;;;0.27;0.13;;;;;;;13.56;81.51;101601.88;5071348;28;20654;-74
2022/07/17 06:38:58;;;;;;;0.10;0.10;;;;;;;13.55;81.04;101601.06;5071348;28;20536;-72
2022/07/17 06:41:23;;;;;;;0.00;0.00;;;;;;;13.70;81.21;101592.53;5070257;28;20633;-73
2022/07/17 06:43:49;;;;;;;0.93;0.93;;;;;;;13.90;81.57;101607.03;5068953;28;20178;-74
2022/07/17 06:46:14;;;;;;;7.70;0.33;;;;;;;13.92;80.40;101599.28;5071314;28;20661;-73
2022/07/17 06:48:40;;;;;;;0.63;0.10;;;;;;;13.95;79.99;101599.47;5070430;28;20266;-73
2022/07/17 06:51:05;;;;;;;0.20;0.20;;;;;;;14.01;78.75;101600.16;5071148;28;20189;-72
2022/07/17 06:53:30;;;;;;;0.07;0.07;;;;;;;14.12;78.22;101582.34;5071212;28;20185;-73
2022/07/17 06:55:57;;;;;;;0.10;0.10;;;;;;;14.22;77.21;101582.16;5069416;28;20186;-73
2022/07/17 06:58:23;;;;;;;0.20;0.20;;;;;;;14.33;75.09;101593.75;5065575;28;20553;-73
2022/07/17 07:00:48;;;;;;;6.40;0.50;;;;;;;14.39;73.75;101591.69;5068249;28;20189;-73
2022/07/17 07:03:14;;;;;;;0.00;0.00;;;;;;;14.48;74.29;101589.88;5071148;28;20243;-73
2022/07/17 07:05:39;;;;;;;0.30;0.30;;;;;;;14.56;73.10;101592.69;5070052;28;20206;-73
2022/07/17 07:08:04;;;;;;;0.10;0.10;;;;;;;14.61;73.38;101602.78;5070898;28;20634;-73
2022/07/17 07:10:30;;;;;;;0.00;0.00;;;;;;;14.68;72.61;101610.59;5069576;28;20570;-73
2022/07/17 07:12:55;;;;;;;0.00;0.00;;;;;;;14.69;71.95;101599.28;5069562;28;20214;-73
2022/07/17 07:15:20;;;;;;;0.93;0.93;;;;;;;14.65;71.45;101602.97;5070496;28;20178;-73
2022/07/17 07:17:46;;;;;;;3.30;0.37;;;;;;;14.76;70.31;101607.94;5070863;28;20194;-72
2022/07/17 07:20:12;;;;;;;0.00;0.00;;;;;;;14.84;69.93;101607.16;5070910;28;20178;-73
2022/07/17 07:22:37;;;;;;;1.50;1.03;;;;;;;14.97;70.43;101604.69;5071104;28;20182;-73
2022/07/17 07:25:03;;;;;;;0.00;0.00;;;;;;;15.00;71.09;101606.78;5071081;28;20197;-73
2022/07/17 07:27:29;;;;;;;0.00;0.00;;;;;;;14.96;70.80;101605.81;5069604;28;20174;-74
2022/07/17 07:29:54;;;;;;;0.20;0.20;;;;;;;15.00;70.68;101604.84;5070734;28;20583;-72
2022/07/17 07:32:20;;;;;;;0.00;0.00;;;;;;;14.98;69.78;101604.38;5070775;28;20275;-74
2022/07/17 07:34:45;;;;;;;0.00;0.00;;;;;;;15.03;69.66;101590.47;5070965;28;20762;-73
2022/07/17 07:37:10;;;;;;;0.00;0.00;;;;;;;15.17;69.00;101590.41;5070764;28;20174;-72
2022/07/17 07:39:36;;;;;;;0.00;0.00;;;;;;;15.27;69.01;101598.41;5070543;28;20596;-73
2022/07/17 07:42:01;;;;;;;0.00;0.00;;;;;;;15.37;68.01;101594.59;5070839;28;20311;-73
2022/07/17 07:44:26;;;;;;;0.00;0.00;;;;;;;15.40;67.49;101597.50;5070874;28;20186;-73
2022/07/17 07:46:52;;;;;;;0.00;0.00;;;;;;;15.50;67.70;101596.44;5070600;28;20182;-73
2022/07/17 07:49:17;;;;;;;0.87;0.87;;;;;;;15.60;66.13;101587.09;5070643;28;20217;-73
2022/07/17 07:51:43;;;;;;;0.40;0.40;;;;;;;15.72;66.82;101590.06;5070545;28;20206;-73
2022/07/17 07:54:09;;;;;;;0.00;0.00;;;;;;;15.75;65.50;101597.69;5070558;28;20220;-73
2022/07/17 07:56:36;;;;;;;0.77;0.67;;;;;;;15.77;66.27;101599.03;5070601;28;20666;-73
2022/07/17 07:59:01;;;;;;;2.77;0.40;;;;;;;15.84;65.77;101598.56;5069090;28;20186;-73
2022/07/17 08:01:27;;;;;;;0.10;0.10;;;;;;;15.98;64.88;101601.19;5070724;28;20192;-73
2022/07/17 08:03:52;;;;;;;0.00;0.00;;;;;;;16.01;64.44;101601.38;5070629;28;20278;-73
2022/07/17 08:06:19;;;;;;;0.77;0.77;;;;;;;16.01;64.44;101606.88;5070628;28;20607;-73
2022/07/17 08:08:44;;;;;;;0.00;0.00;;;;;;;15.94;64.38;101602.97;5068233;28;20507;-73
2022/07/17 08:11:10;;;;;;;0.20;0.20;;;;;;;15.85;64.97;101604.88;5069168;28;20189;-74
2022/07/17 08:13:35;;;;;;;0.10;0.10;;;;;;;15.85;66.03;101597.44;5070711;28;20197;-74
2022/07/17 08:16:01;;;;;;;0.13;0.13;;;;;;;16.01;66.08;101601.38;5070519;28;20206;-74
2022/07/17 08:18:26;;;;;;;8.80;1.20;;;;;;;16.22;64.52;101604.38;5068596;28;20212;-74
2022/07/17 08:20:53;;;;;;;0.00;0.00;;;;;;;16.44;63.74;101599.84;5070353;28;20175;-74
2022/07/17 08:23:18;;;;;;;0.00;0.00;;;;;;;16.57;63.41;101607.97;5070411;28;20194;-74
2022/07/17 08:25:46;;;;;;;0.10;0.10;;;;;;;16.45;63.14;101596.75;5071084;28;20202;-75
2022/07/17 08:28:12;;;;;;;1.60;0.97;;;;;;;16.27;62.90;101597.88;5074090;28;20171;-75
2022/07/17 08:30:37;;;;;;;0.00;0.00;;;;;;;16.28;64.44;101596.75;5074412;28;20190;-74
2022/07/17 08:33:04;;;;;;;0.00;0.00;;;;;;;16.42;63.57;101602.94;5073046;28;20206;-75
2022/07/17 08:35:30;;;;;;;0.00;0.00;;;;;;;16.74;63.40;101609.16;5074174;28;20769;-75
2022/07/17 08:37:55;;;;;;;0.10;0.10;;;;;;;16.92;63.14;101600.56;5074151;28;20181;-75
2022/07/17 08:40:26;;;;;;;0.20;0.20;;;;;;;16.87;61.48;101605.41;5074095;28;20178;-75
2022/07/17 08:42:53;;;;;;;0.00;0.00;;;;;;;16.83;61.12;101607.22;5074233;28;20181;-75
2022/07/17 08:45:18;;;;;;;0.00;0.00;;;;;;;16.97;61.70;101620.84;5074093;28;20217;-76
2022/07/17 08:47:44;;;;;;;0.00;0.00;;;;;;;17.16;60.02;101615.78;5073837;28;20209;-76
2022/07/17 08:50:11;;;;;;;0.00;0.00;;;;;;;17.27;59.56;101622.59;5073702;28;20277;-74
2022/07/17 08:52:39;;;;;;;0.00;0.00;;;;;;;17.42;60.36;101624.03;5073941;28;20260;-74
2022/07/17 08:55:09;;;;;;;0.20;0.20;;;;;;;17.57;59.13;101620.75;5074020;28;20528;-75
2022/07/17 08:57:37;;;;;;;0.00;0.00;;;;;;;17.48;59.29;101628.22;5072463;28;20175;-74
2022/07/17 09:00:03;;;;;;;0.10;0.00;;;;;;;17.39;58.69;101632.97;5073605;28;20272;-75
2022/07/17 09:02:29;;;;;;;0.00;0.00;;;;;;;17.48;59.12;101636.50;5073799;28;20167;-75
2022/07/17 09:04:55;;;;;;;10.10;0.77;;;;;;;17.71;58.92;101623.31;5073996;28;20205;-75
2022/07/17 09:07:20;;;;;;;0.00;0.00;;;;;;;17.81;60.20;101628.50;5073586;28;20183;-75
2022/07/17 09:09:52;;;;;;;0.00;0.00;;;;;;;18.06;58.90;101627.56;5072664;28;20179;-73
2022/07/17 09:12:24;;;;;;;0.00;0.00;;;;;;;18.19;58.02;101622.94;5073599;28;20213;-74
2022/07/17 09:14:49;;;;;;;0.00;0.00;;;;;;;18.27;57.34;101621.28;5072576;28;20175;-75
2022/07/17 09:17:14;;;;;;;0.00;0.00;;;;;;;17.91;57.29;101622.59;5073244;28;20189;-73
2022/07/17 09:19:42;;;;;;;0.00;0.00;;;;;;;17.86;56.95;101605.38;5068926;28;20534;-73
2022/07/17 09:22:12;;;;;;;0.87;0.87;;;;;;;17.86;57.03;101608.16;5072967;28;20224;-74
2022/07/17 09:24:51;;;;;;;0.00;0.00;;;;;;;17.83;56.10;101604.91;5057410;28;20220;-75
2022/07/17 09:27:22;;;;;;;0.00;0.00;;;;;;;18.17;56.27;101600.31;5073082;28;20224;-74
2022/07/17 09:30:13;;;;;;;0.00;0.00;;;;;;;18.09;56.47;101615.84;5073224;28;20638;-74
2022/07/17 09:32:41;;;;;;;0.00;0.00;;;;;;;18.46;55.68;101607.78;5073272;28;20568;-74
2022/07/17 09:35:10;;;;;;;0.00;0.00;;;;;;;18.70;55.50;101609.94;5073332;28;20179;-72
2022/07/17 09:37:37;;;;;;;0.00;0.00;;;;;;;18.74;55.50;101613.63;5070821;28;20801;-74
2022/07/17 09:40:09;;;;;;;0.00;0.00;;;;;;;18.68;54.89;101621.34;5072966;28;20207;-74
2022/07/17 09:42:35;;;;;;;1.70;0.30;;;;;;;18.69;55.65;101622.97;5073094;28;20163;-74
2022/07/17 09:45:02;;;;;;;0.00;0.00;;;;;;;18.75;54.91;101615.25;5073282;28;20656;-74
2022/07/17 09:47:29;;;;;;;0.00;0.00;;;;;;;18.91;54.95;101609.91;5073220;28;20622;-74
2022/07/17 09:49:57;;;;;;;0.60;0.20;;;;;;;18.95;53.48;101611.69;5072631;28;20273;-74
2022/07/17 09:52:29;;;;;;;0.00;0.00;;;;;;;18.96;54.02;101610.53;5072758;28;20216;-74
2022/07/17 09:54:56;;;;;;;0.10;0.10;;;;;;;19.03;53.89;101610.78;5072920;28;20167;-73
2022/07/17 09:57:25;;;;;;;0.47;0.30;;;;;;;18.80;54.13;101612.28;5072652;28;20634;-74
2022/07/17 09:59:53;;;;;;;0.07;0.00;;;;;;;18.96;53.70;101616.06;5071346;28;20257;-74
2022/07/17 10:02:20;;;;;;;0.00;0.00;;;;;;;19.07;54.05;101610.09;5072762;28;20170;-77
2022/07/17 10:04:46;;;;;;;0.00;0.00;;;;;;;19.13;53.72;101609.56;5072700;28;20257;-75
2022/07/17 10:07:12;;;;;;;0.00;0.00;;;;;;;19.03;53.32;101605.25;5072605;28;20223;-76
2022/07/17 10:09:38;;;;;;;0.00;0.00;;;;;;;19.15;53.45;101606.44;5071615;28;20182;-76
2022/07/17 10:12:05;;;;;;;0.00;0.00;;;;;;;19.21;53.79;101616.16;5071158;28;20226;-76
2022/07/17 10:14:30;;;;;;;0.10;0.10;;;;;;;19.49;54.59;101611.59;5072406;28;20185;-77
2022/07/17 10:17:06;;;;;;;0.00;0.00;;;;;;;19.41;53.61;101609.75;5072150;28;20174;-80
2022/07/17 10:19:32;;;;;;;0.00;0.00;;;;;;;19.47;52.78;101611.16;5072302;28;20254;-76
2022/07/17 10:22:05;;;;;;;0.00;0.00;;;;;;;19.43;51.92;101607.44;5072692;28;20530;-77
2022/07/17 10:24:31;;;;;;;1.03;0.20;;;;;;;19.48;52.52;101610.00;5072353;28;20312;-77
2022/07/17 10:26:57;;;;;;;0.27;0.27;;;;;;;19.48;51.94;101607.22;5072059;28;20640;-76
2022/07/17 10:29:35;;;;;;;0.20;0.20;;;;;;;19.59;51.90;101608.44;5071963;28;20796;-77
2022/07/17 10:32:14;;;;;;;0.00;0.00;;;;;;;19.27;51.84;101614.81;5072170;28;20206;-76
2022/07/17 10:34:59;;;;;;;0.00;0.00;;;;;;;19.54;52.04;101613.38;5071979;28;20273;-76
2022/07/17 10:37:36;;;;;;;0.23;0.20;;;;;;;19.82;50.46;101610.78;5071832;28;20564;-77
2022/07/17 10:40:24;;;;;;;0.77;0.40;;;;;;;19.45;50.52;101601.56;5070581;28;20182;-76
2022/07/17 10:42:49;;;;;;;0.00;0.00;;;;;;;19.31;50.93;101588.81;5070961;28;20577;-75
2022/07/17 10:45:18;;;;;;;0.30;0.30;;;;;;;19.70;51.24;101602.44;5071948;28;20178;-76
2022/07/17 10:47:50;;;;;;;0.10;0.10;;;;;;;20.10;49.78;101602.56;5071728;28;20179;-76
2022/07/17 10:50:17;;;;;;;0.00;0.00;;;;;;;20.04;48.28;101596.44;5071192;28;20561;-76
2022/07/17 10:52:43;;;;;;;2.37;0.27;;;;;;;20.47;49.79;101606.13;5071694;28;20214;-76
2022/07/17 10:55:27;;;;;;;0.03;0.03;;;;;;;20.46;49.68;101597.00;5071847;28;20170;-76
2022/07/17 10:57:54;;;;;;;0.50;0.27;;;;;;;20.52;48.65;101596.75;5071886;28;20167;-76
2022/07/17 11:00:19;;;;;;;0.00;0.00;;;;;;;20.28;47.59;101603.16;5071304;28;20186;-75
2022/07/17 11:02:45;;;;;;;4.13;0.77;;;;;;;20.46;48.24;101608.09;5071576;28;20170;-77
2022/07/17 11:05:13;;;;;;;0.40;0.30;;;;;;;20.26;43.91;101597.94;5071574;28;20204;-76
2022/07/17 11:08:09;;;;;;;0.10;0.10;;;;;;;20.57;46.48;101593.75;5071446;28;20199;-76
2022/07/17 11:10:35;;;;;;;0.00;0.00;;;;;;;20.90;46.60;101582.41;5053661;28;20217;-75
2022/07/17 11:13:12;;;;;;;0.03;0.03;;;;;;;21.10;47.95;101584.97;5071363;28;20206;-75
2022/07/17 11:15:46;;;;;;;0.00;0.00;;;;;;;21.41;46.21;101582.63;5071385;28;20666;-76
2022/07/17 11:18:20;;;;;;;0.13;0.07;;;;;;;21.02;44.46;101591.50;5070807;28;20173;-75
2022/07/17 11:21:01;;;;;;;0.00;0.00;;;;;;;21.19;43.73;101587.59;5071338;28;20474;-76
2022/07/17 11:23:30;;;;;;;0.00;0.00;;;;;;;21.37;45.70;101583.34;5071352;28;20213;-76